sensor_id;sensor_type;location;lat;lon;timestamp;P1;durP1;ratioP1;P2;durP2;ratioP2
52188;SDS011;38162;45.926;13.608;2023-05-14T00:00:13;2.15;;;1.23;;
52188;SDS011;38162;45.926;13.608;2023-05-14T00:02:39;2.20;;;1.38;;
52188;SDS011;38162;45.926;13.608;2023-05-14T00:05:05;3.28;;;1.25;;
52188;SDS011;38162;45.926;13.608;2023-05-14T00:07:32;3.17;;;1.40;;
52188;SDS011;38162;45.926;13.608;2023-05-14T00:09:57;4.65;;;1.92;;
52188;SDS011;38162;45.926;13.608;2023-05-14T00:12:23;2.47;;;1.42;;
52188;SDS011;38162;45.926;13.608;2023-05-14T00:14:50;2.20;;;1.30;;
52188;SDS011;38162;45.926;13.608;2023-05-14T00:17:16;2.55;;;1.13;;
52188;SDS011;38162;45.926;13.608;2023-05-14T00:19:42;5.10;;;1.20;;
52188;SDS011;38162;45.926;13.608;2023-05-14T00:22:08;1.67;;;1.13;;
52188;SDS011;38162;45.926;13.608;2023-05-14T00:24:34;3.25;;;1.35;;
52188;SDS011;38162;45.926;13.608;2023-05-14T00:27:01;2.30;;;1.05;;
52188;SDS011;38162;45.926;13.608;2023-05-14T00:29:27;4.78;;;1.55;;
52188;SDS011;38162;45.926;13.608;2023-05-14T00:31:53;1.40;;;1.05;;
52188;SDS011;38162;45.926;13.608;2023-05-14T00:34:19;3.00;;;1.30;;
52188;SDS011;38162;45.926;13.608;2023-05-14T00:36:45;4.18;;;1.20;;
52188;SDS011;38162;45.926;13.608;2023-05-14T00:39:12;3.22;;;1.35;;
52188;SDS011;38162;45.926;13.608;2023-05-14T00:41:38;1.33;;;1.08;;
52188;SDS011;38162;45.926;13.608;2023-05-14T00:44:07;3.00;;;1.27;;
52188;SDS011;38162;45.926;13.608;2023-05-14T00:57:03;3.40;;;1.30;;
52188;SDS011;38162;45.926;13.608;2023-05-14T01:04:08;3.75;;;1.60;;
52188;SDS011;38162;45.926;13.608;2023-05-14T01:11:16;4.95;;;1.77;;
52188;SDS011;38162;45.926;13.608;2023-05-14T01:17:13;3.03;;;1.63;;
52188;SDS011;38162;45.926;13.608;2023-05-14T01:19:44;2.28;;;1.58;;
52188;SDS011;38162;45.926;13.608;2023-05-14T01:22:11;3.35;;;2.15;;
52188;SDS011;38162;45.926;13.608;2023-05-14T01:24:38;3.10;;;1.88;;
52188;SDS011;38162;45.926;13.608;2023-05-14T01:32:47;3.78;;;1.77;;
52188;SDS011;38162;45.926;13.608;2023-05-14T01:35:19;1.92;;;1.67;;
52188;SDS011;38162;45.926;13.608;2023-05-14T01:37:49;4.80;;;1.65;;
52188;SDS011;38162;45.926;13.608;2023-05-14T01:40:15;2.67;;;1.73;;
52188;SDS011;38162;45.926;13.608;2023-05-14T01:42:41;2.70;;;2.10;;
52188;SDS011;38162;45.926;13.608;2023-05-14T01:45:08;3.75;;;2.13;;
52188;SDS011;38162;45.926;13.608;2023-05-14T01:47:34;2.88;;;2.03;;
52188;SDS011;38162;45.926;13.608;2023-05-14T01:50:00;3.15;;;2.20;;
52188;SDS011;38162;45.926;13.608;2023-05-14T01:52:26;4.05;;;1.63;;
52188;SDS011;38162;45.926;13.608;2023-05-14T01:54:51;3.95;;;1.95;;
52188;SDS011;38162;45.926;13.608;2023-05-14T01:57:17;2.30;;;1.67;;
52188;SDS011;38162;45.926;13.608;2023-05-14T01:59:43;3.17;;;1.90;;
52188;SDS011;38162;45.926;13.608;2023-05-14T02:02:09;4.38;;;1.90;;
52188;SDS011;38162;45.926;13.608;2023-05-14T02:04:34;3.10;;;1.70;;
52188;SDS011;38162;45.926;13.608;2023-05-14T02:07:00;2.95;;;1.77;;
52188;SDS011;38162;45.926;13.608;2023-05-14T02:09:26;3.60;;;1.80;;
52188;SDS011;38162;45.926;13.608;2023-05-14T02:11:52;2.97;;;1.70;;
52188;SDS011;38162;45.926;13.608;2023-05-14T02:14:17;2.28;;;1.70;;
52188;SDS011;38162;45.926;13.608;2023-05-14T02:16:43;2.10;;;1.73;;
52188;SDS011;38162;45.926;13.608;2023-05-14T02:19:09;2.88;;;1.60;;
52188;SDS011;38162;45.926;13.608;2023-05-14T02:21:35;3.13;;;1.80;;
52188;SDS011;38162;45.926;13.608;2023-05-14T02:24:01;4.38;;;2.10;;
52188;SDS011;38162;45.926;13.608;2023-05-14T02:26:27;4.55;;;1.83;;
52188;SDS011;38162;45.926;13.608;2023-05-14T02:28:53;7.32;;;3.22;;
52188;SDS011;38162;45.926;13.608;2023-05-14T02:58:27;1.60;;;1.50;;
52188;SDS011;38162;45.926;13.608;2023-05-14T03:00:56;2.00;;;1.65;;
52188;SDS011;38162;45.926;13.608;2023-05-14T03:03:22;2.55;;;1.83;;
52188;SDS011;38162;45.926;13.608;2023-05-14T03:05:48;2.85;;;1.90;;
52188;SDS011;38162;45.926;13.608;2023-05-14T03:08:14;2.72;;;1.90;;
52188;SDS011;38162;45.926;13.608;2023-05-14T03:10:40;4.80;;;2.25;;
52188;SDS011;38162;45.926;13.608;2023-05-14T03:13:06;4.18;;;1.88;;
52188;SDS011;38162;45.926;13.608;2023-05-14T03:15:32;2.80;;;1.80;;
52188;SDS011;38162;45.926;13.608;2023-05-14T03:17:58;3.13;;;1.63;;
52188;SDS011;38162;45.926;13.608;2023-05-14T03:20:23;2.88;;;1.80;;
52188;SDS011;38162;45.926;13.608;2023-05-14T03:22:50;4.55;;;2.30;;
52188;SDS011;38162;45.926;13.608;2023-05-14T03:25:16;4.93;;;1.67;;
52188;SDS011;38162;45.926;13.608;2023-05-14T03:27:42;3.33;;;1.83;;
52188;SDS011;38162;45.926;13.608;2023-05-14T03:30:08;5.78;;;1.95;;
52188;SDS011;38162;45.926;13.608;2023-05-14T03:32:35;5.97;;;1.80;;
52188;SDS011;38162;45.926;13.608;2023-05-14T03:35:01;5.00;;;1.98;;
52188;SDS011;38162;45.926;13.608;2023-05-14T03:37:27;5.57;;;2.33;;
52188;SDS011;38162;45.926;13.608;2023-05-14T03:39:53;5.05;;;1.98;;
52188;SDS011;38162;45.926;13.608;2023-05-14T03:42:19;2.97;;;1.83;;
52188;SDS011;38162;45.926;13.608;2023-05-14T03:44:44;3.33;;;2.00;;
52188;SDS011;38162;45.926;13.608;2023-05-14T03:47:10;2.72;;;2.17;;
52188;SDS011;38162;45.926;13.608;2023-05-14T03:49:36;1.83;;;1.67;;
52188;SDS011;38162;45.926;13.608;2023-05-14T03:52:02;3.80;;;1.98;;
52188;SDS011;38162;45.926;13.608;2023-05-14T03:54:28;3.38;;;2.53;;
52188;SDS011;38162;45.926;13.608;2023-05-14T03:56:53;3.67;;;2.10;;
52188;SDS011;38162;45.926;13.608;2023-05-14T03:59:19;4.25;;;2.30;;
52188;SDS011;38162;45.926;13.608;2023-05-14T04:01:45;5.53;;;2.75;;
52188;SDS011;38162;45.926;13.608;2023-05-14T04:04:11;2.97;;;2.10;;
52188;SDS011;38162;45.926;13.608;2023-05-14T04:06:37;3.95;;;2.15;;
52188;SDS011;38162;45.926;13.608;2023-05-14T04:09:02;6.95;;;2.20;;
52188;SDS011;38162;45.926;13.608;2023-05-14T04:11:28;7.00;;;2.83;;
52188;SDS011;38162;45.926;13.608;2023-05-14T04:13:54;9.23;;;2.78;;
52188;SDS011;38162;45.926;13.608;2023-05-14T04:16:20;4.85;;;2.45;;
52188;SDS011;38162;45.926;13.608;2023-05-14T04:39:11;3.75;;;2.60;;
52188;SDS011;38162;45.926;13.608;2023-05-14T04:41:46;3.30;;;2.38;;
52188;SDS011;38162;45.926;13.608;2023-05-14T04:44:57;3.80;;;3.38;;
52188;SDS011;38162;45.926;13.608;2023-05-14T04:47:47;3.60;;;2.50;;
52188;SDS011;38162;45.926;13.608;2023-05-14T04:50:12;4.55;;;2.50;;
52188;SDS011;38162;45.926;13.608;2023-05-14T04:52:38;2.90;;;2.42;;
52188;SDS011;38162;45.926;13.608;2023-05-14T04:55:06;2.80;;;2.25;;
52188;SDS011;38162;45.926;13.608;2023-05-14T04:57:32;5.85;;;5.22;;
52188;SDS011;38162;45.926;13.608;2023-05-14T04:59:58;7.32;;;5.15;;
52188;SDS011;38162;45.926;13.608;2023-05-14T05:02:24;4.65;;;2.50;;
52188;SDS011;38162;45.926;13.608;2023-05-14T05:04:49;3.40;;;2.28;;
52188;SDS011;38162;45.926;13.608;2023-05-14T05:07:15;3.63;;;2.13;;
52188;SDS011;38162;45.926;13.608;2023-05-14T05:09:41;4.38;;;2.33;;
52188;SDS011;38162;45.926;13.608;2023-05-14T05:12:08;3.05;;;2.10;;
52188;SDS011;38162;45.926;13.608;2023-05-14T05:14:34;9.70;;;2.20;;
52188;SDS011;38162;45.926;13.608;2023-05-14T05:17:00;3.22;;;1.90;;
52188;SDS011;38162;45.926;13.608;2023-05-14T05:19:25;4.82;;;1.88;;
52188;SDS011;38162;45.926;13.608;2023-05-14T05:21:51;2.47;;;2.00;;
52188;SDS011;38162;45.926;13.608;2023-05-14T05:24:17;2.50;;;1.73;;
52188;SDS011;38162;45.926;13.608;2023-05-14T05:26:43;2.30;;;2.00;;
52188;SDS011;38162;45.926;13.608;2023-05-14T05:29:09;4.70;;;2.17;;
52188;SDS011;38162;45.926;13.608;2023-05-14T05:31:34;4.00;;;2.30;;
52188;SDS011;38162;45.926;13.608;2023-05-14T05:34:01;2.67;;;1.70;;
52188;SDS011;38162;45.926;13.608;2023-05-14T05:36:27;3.00;;;2.00;;
52188;SDS011;38162;45.926;13.608;2023-05-14T05:38:53;3.75;;;1.70;;
52188;SDS011;38162;45.926;13.608;2023-05-14T05:41:19;3.78;;;1.90;;
52188;SDS011;38162;45.926;13.608;2023-05-14T05:43:45;3.20;;;1.50;;
52188;SDS011;38162;45.926;13.608;2023-05-14T05:46:10;2.10;;;1.25;;
52188;SDS011;38162;45.926;13.608;2023-05-14T05:48:36;2.75;;;1.65;;
52188;SDS011;38162;45.926;13.608;2023-05-14T05:51:02;7.10;;;1.77;;
52188;SDS011;38162;45.926;13.608;2023-05-14T05:53:28;3.65;;;1.63;;
52188;SDS011;38162;45.926;13.608;2023-05-14T05:55:54;2.35;;;1.50;;
52188;SDS011;38162;45.926;13.608;2023-05-14T05:58:20;4.57;;;1.50;;
52188;SDS011;38162;45.926;13.608;2023-05-14T06:00:46;3.35;;;1.48;;
52188;SDS011;38162;45.926;13.608;2023-05-14T06:03:12;4.72;;;1.52;;
52188;SDS011;38162;45.926;13.608;2023-05-14T06:06:32;2.78;;;1.27;;
52188;SDS011;38162;45.926;13.608;2023-05-14T06:13:51;4.50;;;1.40;;
52188;SDS011;38162;45.926;13.608;2023-05-14T06:30:41;1.38;;;1.00;;
52188;SDS011;38162;45.926;13.608;2023-05-14T06:33:07;2.20;;;1.45;;
52188;SDS011;38162;45.926;13.608;2023-05-14T06:35:33;4.68;;;1.35;;
52188;SDS011;38162;45.926;13.608;2023-05-14T06:38:01;2.97;;;1.40;;
52188;SDS011;38162;45.926;13.608;2023-05-14T06:40:27;1.75;;;1.00;;
52188;SDS011;38162;45.926;13.608;2023-05-14T06:42:53;2.03;;;1.15;;
52188;SDS011;38162;45.926;13.608;2023-05-14T06:45:18;2.80;;;1.00;;
52188;SDS011;38162;45.926;13.608;2023-05-14T06:47:44;2.28;;;1.10;;
52188;SDS011;38162;45.926;13.608;2023-05-14T06:50:10;4.03;;;1.40;;
52188;SDS011;38162;45.926;13.608;2023-05-14T06:52:36;1.92;;;1.10;;
52188;SDS011;38162;45.926;13.608;2023-05-14T06:55:02;3.08;;;1.25;;
52188;SDS011;38162;45.926;13.608;2023-05-14T06:57:28;1.88;;;1.00;;
52188;SDS011;38162;45.926;13.608;2023-05-14T06:59:54;4.88;;;1.60;;
52188;SDS011;38162;45.926;13.608;2023-05-14T07:02:21;4.57;;;1.23;;
52188;SDS011;38162;45.926;13.608;2023-05-14T07:04:47;2.33;;;1.42;;
52188;SDS011;38162;45.926;13.608;2023-05-14T07:07:13;2.53;;;1.10;;
52188;SDS011;38162;45.926;13.608;2023-05-14T07:09:42;2.65;;;1.20;;
52188;SDS011;38162;45.926;13.608;2023-05-14T07:12:08;3.60;;;1.58;;
52188;SDS011;38162;45.926;13.608;2023-05-14T07:14:33;2.08;;;1.20;;
52188;SDS011;38162;45.926;13.608;2023-05-14T07:16:59;2.47;;;1.13;;
52188;SDS011;38162;45.926;13.608;2023-05-14T07:19:25;4.18;;;1.30;;
52188;SDS011;38162;45.926;13.608;2023-05-14T07:21:52;1.40;;;1.05;;
52188;SDS011;38162;45.926;13.608;2023-05-14T07:24:18;1.00;;;0.90;;
52188;SDS011;38162;45.926;13.608;2023-05-14T07:26:44;1.48;;;0.90;;
52188;SDS011;38162;45.926;13.608;2023-05-14T07:29:10;4.82;;;1.00;;
52188;SDS011;38162;45.926;13.608;2023-05-14T07:31:36;1.58;;;0.90;;
52188;SDS011;38162;45.926;13.608;2023-05-14T07:34:01;4.15;;;1.85;;
52188;SDS011;38162;45.926;13.608;2023-05-14T07:36:27;2.03;;;0.93;;
52188;SDS011;38162;45.926;13.608;2023-05-14T07:38:53;2.15;;;0.98;;
52188;SDS011;38162;45.926;13.608;2023-05-14T07:41:19;3.50;;;1.00;;
52188;SDS011;38162;45.926;13.608;2023-05-14T07:43:45;1.20;;;0.82;;
52188;SDS011;38162;45.926;13.608;2023-05-14T07:46:11;1.27;;;0.90;;
52188;SDS011;38162;45.926;13.608;2023-05-14T07:48:36;8.15;;;1.10;;
52188;SDS011;38162;45.926;13.608;2023-05-14T07:51:02;1.13;;;0.60;;
52188;SDS011;38162;45.926;13.608;2023-05-14T07:53:28;0.85;;;0.60;;
52188;SDS011;38162;45.926;13.608;2023-05-14T07:55:54;2.30;;;0.77;;
52188;SDS011;38162;45.926;13.608;2023-05-14T07:58:20;1.63;;;0.80;;
52188;SDS011;38162;45.926;13.608;2023-05-14T08:00:46;1.17;;;0.90;;
52188;SDS011;38162;45.926;13.608;2023-05-14T08:03:11;1.27;;;1.00;;
52188;SDS011;38162;45.926;13.608;2023-05-14T08:05:37;4.05;;;1.10;;
52188;SDS011;38162;45.926;13.608;2023-05-14T08:08:03;2.50;;;1.17;;
52188;SDS011;38162;45.926;13.608;2023-05-14T08:10:29;4.68;;;0.90;;
52188;SDS011;38162;45.926;13.608;2023-05-14T08:12:54;3.08;;;0.80;;
52188;SDS011;38162;45.926;13.608;2023-05-14T08:15:20;1.20;;;0.73;;
52188;SDS011;38162;45.926;13.608;2023-05-14T08:17:46;2.72;;;0.98;;
52188;SDS011;38162;45.926;13.608;2023-05-14T08:20:12;1.80;;;0.93;;
52188;SDS011;38162;45.926;13.608;2023-05-14T08:22:38;2.10;;;0.90;;
52188;SDS011;38162;45.926;13.608;2023-05-14T08:25:04;1.52;;;0.90;;
52188;SDS011;38162;45.926;13.608;2023-05-14T08:27:30;2.20;;;1.27;;
52188;SDS011;38162;45.926;13.608;2023-05-14T08:29:56;2.35;;;0.80;;
52188;SDS011;38162;45.926;13.608;2023-05-14T08:32:22;3.17;;;0.85;;
52188;SDS011;38162;45.926;13.608;2023-05-14T08:34:48;1.77;;;1.10;;
52188;SDS011;38162;45.926;13.608;2023-05-14T08:37:13;3.17;;;0.82;;
52188;SDS011;38162;45.926;13.608;2023-05-14T08:39:39;3.45;;;1.08;;
52188;SDS011;38162;45.926;13.608;2023-05-14T08:42:05;1.48;;;1.10;;
52188;SDS011;38162;45.926;13.608;2023-05-14T08:44:35;2.35;;;1.00;;
52188;SDS011;38162;45.926;13.608;2023-05-14T08:47:22;0.88;;;0.70;;
52188;SDS011;38162;45.926;13.608;2023-05-14T08:49:51;2.00;;;0.90;;
52188;SDS011;38162;45.926;13.608;2023-05-14T08:52:25;4.55;;;1.00;;
52188;SDS011;38162;45.926;13.608;2023-05-14T08:54:51;4.85;;;0.80;;
52188;SDS011;38162;45.926;13.608;2023-05-14T08:57:18;1.63;;;0.85;;
52188;SDS011;38162;45.926;13.608;2023-05-14T08:59:45;1.80;;;0.70;;
52188;SDS011;38162;45.926;13.608;2023-05-14T09:02:11;3.85;;;1.38;;
52188;SDS011;38162;45.926;13.608;2023-05-14T09:04:41;3.33;;;1.10;;
52188;SDS011;38162;45.926;13.608;2023-05-14T09:07:07;3.63;;;0.90;;
52188;SDS011;38162;45.926;13.608;2023-05-14T09:09:33;13.05;;;7.35;;
52188;SDS011;38162;45.926;13.608;2023-05-14T09:11:59;42.85;;;8.02;;
52188;SDS011;38162;45.926;13.608;2023-05-14T09:14:25;30.52;;;2.53;;
52188;SDS011;38162;45.926;13.608;2023-05-14T09:16:51;3.20;;;0.80;;
52188;SDS011;38162;45.926;13.608;2023-05-14T09:19:17;1.10;;;0.75;;
52188;SDS011;38162;45.926;13.608;2023-05-14T09:21:43;3.00;;;1.00;;
52188;SDS011;38162;45.926;13.608;2023-05-14T09:24:17;4.45;;;0.88;;
52188;SDS011;38162;45.926;13.608;2023-05-14T09:26:54;1.20;;;0.70;;
52188;SDS011;38162;45.926;13.608;2023-05-14T09:29:24;3.03;;;0.80;;
52188;SDS011;38162;45.926;13.608;2023-05-14T09:31:52;1.20;;;0.65;;
52188;SDS011;38162;45.926;13.608;2023-05-14T09:34:28;1.13;;;0.70;;
52188;SDS011;38162;45.926;13.608;2023-05-14T09:36:59;2.47;;;1.20;;
52188;SDS011;38162;45.926;13.608;2023-05-14T09:39:26;4.00;;;1.15;;
52188;SDS011;38162;45.926;13.608;2023-05-14T09:41:53;1.27;;;0.88;;
52188;SDS011;38162;45.926;13.608;2023-05-14T09:44:19;1.25;;;0.82;;
52188;SDS011;38162;45.926;13.608;2023-05-14T09:46:46;3.50;;;0.93;;
52188;SDS011;38162;45.926;13.608;2023-05-14T09:49:11;1.50;;;1.02;;
52188;SDS011;38162;45.926;13.608;2023-05-14T09:51:38;4.97;;;1.30;;
52188;SDS011;38162;45.926;13.608;2023-05-14T09:54:04;3.28;;;1.05;;
52188;SDS011;38162;45.926;13.608;2023-05-14T09:56:34;3.55;;;1.17;;
52188;SDS011;38162;45.926;13.608;2023-05-14T09:59:00;1.85;;;1.45;;
52188;SDS011;38162;45.926;13.608;2023-05-14T10:01:27;1.38;;;1.00;;
52188;SDS011;38162;45.926;13.608;2023-05-14T10:03:54;1.98;;;1.10;;
52188;SDS011;38162;45.926;13.608;2023-05-14T10:06:22;5.10;;;1.10;;
52188;SDS011;38162;45.926;13.608;2023-05-14T10:08:53;1.03;;;0.73;;
52188;SDS011;38162;45.926;13.608;2023-05-14T10:11:23;1.27;;;0.90;;
52188;SDS011;38162;45.926;13.608;2023-05-14T10:16:32;0.70;;;0.40;;
52188;SDS011;38162;45.926;13.608;2023-05-14T10:19:00;2.60;;;0.57;;
52188;SDS011;38162;45.926;13.608;2023-05-14T10:21:35;0.73;;;0.32;;
52188;SDS011;38162;45.926;13.608;2023-05-14T10:24:03;0.50;;;0.30;;
52188;SDS011;38162;45.926;13.608;2023-05-14T10:26:34;1.77;;;0.40;;
52188;SDS011;38162;45.926;13.608;2023-05-14T10:29:03;0.95;;;0.40;;
52188;SDS011;38162;45.926;13.608;2023-05-14T10:37:11;1.10;;;0.47;;
52188;SDS011;38162;45.926;13.608;2023-05-14T10:39:39;1.55;;;0.50;;
52188;SDS011;38162;45.926;13.608;2023-05-14T10:42:05;1.02;;;0.40;;
52188;SDS011;38162;45.926;13.608;2023-05-14T10:44:32;1.45;;;0.50;;
52188;SDS011;38162;45.926;13.608;2023-05-14T10:47:00;0.50;;;0.40;;
52188;SDS011;38162;45.926;13.608;2023-05-14T10:49:27;1.40;;;0.50;;
52188;SDS011;38162;45.926;13.608;2023-05-14T10:51:53;1.05;;;0.50;;
52188;SDS011;38162;45.926;13.608;2023-05-14T10:54:18;0.65;;;0.47;;
52188;SDS011;38162;45.926;13.608;2023-05-14T10:56:46;1.52;;;0.47;;
52188;SDS011;38162;45.926;13.608;2023-05-14T10:59:15;0.60;;;0.32;;
52188;SDS011;38162;45.926;13.608;2023-05-14T11:01:41;1.75;;;0.30;;
52188;SDS011;38162;45.926;13.608;2023-05-14T11:04:08;0.30;;;0.30;;
52188;SDS011;38162;45.926;13.608;2023-05-14T11:06:43;1.10;;;0.30;;
52188;SDS011;38162;45.926;13.608;2023-05-14T11:09:12;3.70;;;0.70;;
52188;SDS011;38162;45.926;13.608;2023-05-14T11:11:41;3.45;;;1.10;;
52188;SDS011;38162;45.926;13.608;2023-05-14T11:14:08;1.35;;;1.10;;
52188;SDS011;38162;45.926;13.608;2023-05-14T11:16:34;0.95;;;0.70;;
52188;SDS011;38162;45.926;13.608;2023-05-14T11:19:02;7.35;;;1.00;;
52188;SDS011;38162;45.926;13.608;2023-05-14T11:21:29;9.75;;;3.00;;
52188;SDS011;38162;45.926;13.608;2023-05-14T11:24:01;3.80;;;1.90;;
52188;SDS011;38162;45.926;13.608;2023-05-14T11:26:27;1.65;;;1.10;;
52188;SDS011;38162;45.926;13.608;2023-05-14T11:28:53;2.22;;;1.40;;
52188;SDS011;38162;45.926;13.608;2023-05-14T11:31:20;2.25;;;1.20;;
52188;SDS011;38162;45.926;13.608;2023-05-14T11:33:46;3.67;;;1.20;;
52188;SDS011;38162;45.926;13.608;2023-05-14T11:36:12;0.57;;;0.50;;
52188;SDS011;38162;45.926;13.608;2023-05-14T11:38:45;0.90;;;0.60;;
52188;SDS011;38162;45.926;13.608;2023-05-14T11:41:13;1.55;;;0.55;;
52188;SDS011;38162;45.926;13.608;2023-05-14T11:43:39;0.98;;;0.70;;
52188;SDS011;38162;45.926;13.608;2023-05-14T11:46:05;3.38;;;0.90;;
52188;SDS011;38162;45.926;13.608;2023-05-14T11:48:31;1.10;;;0.90;;
52188;SDS011;38162;45.926;13.608;2023-05-14T11:50:57;2.42;;;1.08;;
52188;SDS011;38162;45.926;13.608;2023-05-14T11:53:23;2.58;;;1.58;;
52188;SDS011;38162;45.926;13.608;2023-05-14T11:55:51;3.38;;;1.45;;
52188;SDS011;38162;45.926;13.608;2023-05-14T11:58:18;2.50;;;0.90;;
52188;SDS011;38162;45.926;13.608;2023-05-14T12:00:45;0.88;;;0.68;;
52188;SDS011;38162;45.926;13.608;2023-05-14T12:03:14;2.58;;;0.70;;
52188;SDS011;38162;45.926;13.608;2023-05-14T12:05:40;1.75;;;0.80;;
52188;SDS011;38162;45.926;13.608;2023-05-14T12:08:19;2.53;;;0.90;;
52188;SDS011;38162;45.926;13.608;2023-05-14T12:10:46;2.05;;;0.60;;
52188;SDS011;38162;45.926;13.608;2023-05-14T12:13:13;1.20;;;0.70;;
52188;SDS011;38162;45.926;13.608;2023-05-14T12:15:43;1.00;;;0.63;;
52188;SDS011;38162;45.926;13.608;2023-05-14T12:18:10;1.38;;;0.70;;
52188;SDS011;38162;45.926;13.608;2023-05-14T12:20:36;1.77;;;0.98;;
52188;SDS011;38162;45.926;13.608;2023-05-14T12:23:02;4.25;;;1.30;;
52188;SDS011;38162;45.926;13.608;2023-05-14T12:25:28;2.03;;;0.80;;
52188;SDS011;38162;45.926;13.608;2023-05-14T12:27:54;2.33;;;1.05;;
52188;SDS011;38162;45.926;13.608;2023-05-14T12:30:20;1.95;;;0.70;;
52188;SDS011;38162;45.926;13.608;2023-05-14T12:32:45;3.75;;;0.85;;
52188;SDS011;38162;45.926;13.608;2023-05-14T12:35:12;0.73;;;0.68;;
52188;SDS011;38162;45.926;13.608;2023-05-14T12:37:38;1.80;;;0.98;;
52188;SDS011;38162;45.926;13.608;2023-05-14T12:40:04;2.83;;;0.90;;
52188;SDS011;38162;45.926;13.608;2023-05-14T12:42:33;1.42;;;1.00;;
52188;SDS011;38162;45.926;13.608;2023-05-14T12:44:59;2.15;;;1.45;;
52188;SDS011;38162;45.926;13.608;2023-05-14T12:47:29;2.35;;;0.90;;
52188;SDS011;38162;45.926;13.608;2023-05-14T12:49:55;2.50;;;1.00;;
52188;SDS011;38162;45.926;13.608;2023-05-14T12:52:21;1.83;;;0.82;;
52188;SDS011;38162;45.926;13.608;2023-05-14T12:54:47;1.52;;;0.90;;
52188;SDS011;38162;45.926;13.608;2023-05-14T12:57:13;2.67;;;1.25;;
52188;SDS011;38162;45.926;13.608;2023-05-14T12:59:38;3.47;;;0.77;;
52188;SDS011;38162;45.926;13.608;2023-05-14T13:02:05;1.48;;;0.73;;
52188;SDS011;38162;45.926;13.608;2023-05-14T13:04:31;1.52;;;0.65;;
52188;SDS011;38162;45.926;13.608;2023-05-14T13:06:57;2.38;;;0.80;;
52188;SDS011;38162;45.926;13.608;2023-05-14T13:09:23;2.47;;;0.93;;
52188;SDS011;38162;45.926;13.608;2023-05-14T13:11:51;1.92;;;0.70;;
52188;SDS011;38162;45.926;13.608;2023-05-14T13:14:17;2.42;;;0.80;;
52188;SDS011;38162;45.926;13.608;2023-05-14T13:16:43;2.00;;;0.70;;
52188;SDS011;38162;45.926;13.608;2023-05-14T13:19:09;1.08;;;0.70;;
52188;SDS011;38162;45.926;13.608;2023-05-14T13:21:35;1.08;;;0.68;;
52188;SDS011;38162;45.926;13.608;2023-05-14T13:24:00;3.58;;;0.90;;
52188;SDS011;38162;45.926;13.608;2023-05-14T13:26:26;0.90;;;0.60;;
52188;SDS011;38162;45.926;13.608;2023-05-14T13:28:52;11.98;;;1.25;;
52188;SDS011;38162;45.926;13.608;2023-05-14T13:31:18;2.55;;;0.60;;
52188;SDS011;38162;45.926;13.608;2023-05-14T13:33:44;2.75;;;0.70;;
52188;SDS011;38162;45.926;13.608;2023-05-14T13:36:10;3.50;;;0.60;;
52188;SDS011;38162;45.926;13.608;2023-05-14T13:38:37;0.60;;;0.50;;
52188;SDS011;38162;45.926;13.608;2023-05-14T13:41:03;1.17;;;0.50;;
52188;SDS011;38162;45.926;13.608;2023-05-14T13:43:33;1.23;;;0.65;;
52188;SDS011;38162;45.926;13.608;2023-05-14T13:45:59;0.82;;;0.73;;
52188;SDS011;38162;45.926;13.608;2023-05-14T13:48:26;1.45;;;0.70;;
52188;SDS011;38162;45.926;13.608;2023-05-14T13:50:52;0.60;;;0.60;;
52188;SDS011;38162;45.926;13.608;2023-05-14T13:53:18;1.63;;;0.70;;
52188;SDS011;38162;45.926;13.608;2023-05-14T13:55:45;2.67;;;0.70;;
52188;SDS011;38162;45.926;13.608;2023-05-14T13:58:11;2.38;;;0.60;;
52188;SDS011;38162;45.926;13.608;2023-05-14T14:00:37;2.65;;;0.60;;
52188;SDS011;38162;45.926;13.608;2023-05-14T14:03:03;1.20;;;0.80;;
52188;SDS011;38162;45.926;13.608;2023-05-14T14:05:29;1.95;;;0.77;;
52188;SDS011;38162;45.926;13.608;2023-05-14T14:07:55;1.52;;;0.73;;
52188;SDS011;38162;45.926;13.608;2023-05-14T14:10:21;2.28;;;0.68;;
52188;SDS011;38162;45.926;13.608;2023-05-14T14:12:48;1.35;;;0.70;;
52188;SDS011;38162;45.926;13.608;2023-05-14T14:15:14;5.45;;;0.80;;
52188;SDS011;38162;45.926;13.608;2023-05-14T14:17:39;2.22;;;0.60;;
52188;SDS011;38162;45.926;13.608;2023-05-14T14:20:06;1.60;;;0.60;;
52188;SDS011;38162;45.926;13.608;2023-05-14T14:22:33;2.58;;;0.60;;
52188;SDS011;38162;45.926;13.608;2023-05-14T14:24:59;2.65;;;0.80;;
52188;SDS011;38162;45.926;13.608;2023-05-14T14:27:26;3.30;;;0.90;;
52188;SDS011;38162;45.926;13.608;2023-05-14T14:29:52;3.10;;;0.63;;
52188;SDS011;38162;45.926;13.608;2023-05-14T14:32:18;1.45;;;0.60;;
52188;SDS011;38162;45.926;13.608;2023-05-14T14:34:44;2.10;;;0.70;;
52188;SDS011;38162;45.926;13.608;2023-05-14T14:37:10;1.63;;;0.98;;
52188;SDS011;38162;45.926;13.608;2023-05-14T14:39:36;0.98;;;0.40;;
52188;SDS011;38162;45.926;13.608;2023-05-14T14:42:01;0.85;;;0.40;;
52188;SDS011;38162;45.926;13.608;2023-05-14T14:44:27;2.47;;;0.80;;
52188;SDS011;38162;45.926;13.608;2023-05-14T14:46:53;1.40;;;0.60;;
52188;SDS011;38162;45.926;13.608;2023-05-14T14:49:19;1.35;;;0.65;;
52188;SDS011;38162;45.926;13.608;2023-05-14T14:51:44;5.75;;;0.73;;
52188;SDS011;38162;45.926;13.608;2023-05-14T14:54:10;3.30;;;0.50;;
52188;SDS011;38162;45.926;13.608;2023-05-14T14:56:36;4.63;;;0.85;;
52188;SDS011;38162;45.926;13.608;2023-05-14T14:59:03;3.13;;;0.80;;
52188;SDS011;38162;45.926;13.608;2023-05-14T15:01:28;1.98;;;0.70;;
52188;SDS011;38162;45.926;13.608;2023-05-14T15:03:54;2.30;;;0.70;;
52188;SDS011;38162;45.926;13.608;2023-05-14T15:06:20;2.33;;;0.90;;
52188;SDS011;38162;45.926;13.608;2023-05-14T15:08:46;3.03;;;0.95;;
52188;SDS011;38162;45.926;13.608;2023-05-14T15:11:12;4.65;;;0.63;;
52188;SDS011;38162;45.926;13.608;2023-05-14T15:13:38;3.08;;;0.70;;
52188;SDS011;38162;45.926;13.608;2023-05-14T15:16:05;3.85;;;0.80;;
52188;SDS011;38162;45.926;13.608;2023-05-14T15:18:31;3.22;;;1.00;;
52188;SDS011;38162;45.926;13.608;2023-05-14T15:20:57;1.58;;;0.63;;
52188;SDS011;38162;45.926;13.608;2023-05-14T15:23:23;3.05;;;0.90;;
52188;SDS011;38162;45.926;13.608;2023-05-14T15:25:48;11.55;;;1.05;;
52188;SDS011;38162;45.926;13.608;2023-05-14T15:28:14;5.65;;;1.40;;
52188;SDS011;38162;45.926;13.608;2023-05-14T15:30:40;8.63;;;1.00;;
52188;SDS011;38162;45.926;13.608;2023-05-14T15:33:06;7.13;;;0.95;;
52188;SDS011;38162;45.926;13.608;2023-05-14T15:35:32;2.38;;;1.00;;
52188;SDS011;38162;45.926;13.608;2023-05-14T15:37:58;2.80;;;0.80;;
52188;SDS011;38162;45.926;13.608;2023-05-14T15:40:25;0.93;;;0.60;;
52188;SDS011;38162;45.926;13.608;2023-05-14T15:42:51;6.30;;;1.05;;
52188;SDS011;38162;45.926;13.608;2023-05-14T15:45:17;5.28;;;1.30;;
52188;SDS011;38162;45.926;13.608;2023-05-14T15:47:43;9.63;;;1.70;;
52188;SDS011;38162;45.926;13.608;2023-05-14T15:50:09;2.88;;;1.77;;
52188;SDS011;38162;45.926;13.608;2023-05-14T15:52:35;1.52;;;1.10;;
52188;SDS011;38162;45.926;13.608;2023-05-14T15:55:01;7.22;;;1.20;;
52188;SDS011;38162;45.926;13.608;2023-05-14T15:57:28;4.95;;;0.93;;
52188;SDS011;38162;45.926;13.608;2023-05-14T15:59:54;3.72;;;1.20;;
52188;SDS011;38162;45.926;13.608;2023-05-14T16:02:20;8.70;;;1.00;;
52188;SDS011;38162;45.926;13.608;2023-05-14T16:04:46;3.25;;;0.98;;
52188;SDS011;38162;45.926;13.608;2023-05-14T16:07:13;5.18;;;0.95;;
52188;SDS011;38162;45.926;13.608;2023-05-14T16:09:39;7.38;;;2.05;;
52188;SDS011;38162;45.926;13.608;2023-05-14T16:12:06;3.13;;;1.83;;
52188;SDS011;38162;45.926;13.608;2023-05-14T16:14:32;4.38;;;1.50;;